sensor_id;sensor_type;location;lat;lon;timestamp;P1;durP1;ratioP1;P2;durP2;ratioP2
71343;SDS011;59146;43.850;25.948;2023-05-15T00:02:04;9.40;;;3.97;;
71343;SDS011;59146;43.850;25.948;2023-05-15T00:04:30;8.77;;;4.53;;
71343;SDS011;59146;43.850;25.948;2023-05-15T00:06:56;5.63;;;4.22;;
71343;SDS011;59146;43.850;25.948;2023-05-15T00:09:21;7.80;;;4.50;;
71343;SDS011;59146;43.850;25.948;2023-05-15T00:11:47;6.20;;;4.65;;
71343;SDS011;59146;43.850;25.948;2023-05-15T00:14:12;10.88;;;4.40;;
71343;SDS011;59146;43.850;25.948;2023-05-15T00:16:38;10.45;;;4.35;;
71343;SDS011;59146;43.850;25.948;2023-05-15T00:19:03;8.88;;;4.78;;
71343;SDS011;59146;43.850;25.948;2023-05-15T00:21:28;10.05;;;4.50;;
71343;SDS011;59146;43.850;25.948;2023-05-15T00:23:55;7.95;;;5.07;;
71343;SDS011;59146;43.850;25.948;2023-05-15T00:26:22;8.98;;;4.90;;
71343;SDS011;59146;43.850;25.948;2023-05-15T00:28:48;10.27;;;5.38;;
71343;SDS011;59146;43.850;25.948;2023-05-15T00:31:14;9.57;;;4.45;;
71343;SDS011;59146;43.850;25.948;2023-05-15T00:33:40;6.72;;;4.32;;
71343;SDS011;59146;43.850;25.948;2023-05-15T00:36:06;14.57;;;4.63;;
71343;SDS011;59146;43.850;25.948;2023-05-15T00:38:32;6.53;;;4.47;;
71343;SDS011;59146;43.850;25.948;2023-05-15T00:40:58;14.40;;;5.07;;
71343;SDS011;59146;43.850;25.948;2023-05-15T00:43:24;12.85;;;4.65;;
71343;SDS011;59146;43.850;25.948;2023-05-15T00:45:51;10.07;;;4.60;;
71343;SDS011;59146;43.850;25.948;2023-05-15T00:48:17;6.20;;;4.22;;
71343;SDS011;59146;43.850;25.948;2023-05-15T00:50:46;7.18;;;4.57;;
71343;SDS011;59146;43.850;25.948;2023-05-15T00:53:18;11.25;;;4.40;;
71343;SDS011;59146;43.850;25.948;2023-05-15T00:55:46;6.88;;;4.80;;
71343;SDS011;59146;43.850;25.948;2023-05-15T00:58:13;6.20;;;4.50;;
71343;SDS011;59146;43.850;25.948;2023-05-15T01:00:39;8.80;;;5.10;;
71343;SDS011;59146;43.850;25.948;2023-05-15T01:03:09;7.13;;;5.27;;
71343;SDS011;59146;43.850;25.948;2023-05-15T01:05:35;6.95;;;5.47;;
71343;SDS011;59146;43.850;25.948;2023-05-15T01:08:05;8.55;;;5.20;;
71343;SDS011;59146;43.850;25.948;2023-05-15T01:10:52;8.93;;;4.85;;
71343;SDS011;59146;43.850;25.948;2023-05-15T01:13:19;9.43;;;5.13;;
71343;SDS011;59146;43.850;25.948;2023-05-15T01:15:46;9.52;;;5.78;;
71343;SDS011;59146;43.850;25.948;2023-05-15T01:18:13;11.20;;;5.25;;
71343;SDS011;59146;43.850;25.948;2023-05-15T01:20:46;14.13;;;5.32;;
71343;SDS011;59146;43.850;25.948;2023-05-15T01:29:03;11.15;;;4.53;;
71343;SDS011;59146;43.850;25.948;2023-05-15T01:31:36;12.18;;;5.07;;
71343;SDS011;59146;43.850;25.948;2023-05-15T01:34:06;14.45;;;5.22;;
71343;SDS011;59146;43.850;25.948;2023-05-15T01:36:37;7.53;;;4.85;;
71343;SDS011;59146;43.850;25.948;2023-05-15T01:39:07;8.13;;;5.18;;
71343;SDS011;59146;43.850;25.948;2023-05-15T01:41:44;8.45;;;4.55;;
71343;SDS011;59146;43.850;25.948;2023-05-15T01:44:30;8.07;;;4.40;;
71343;SDS011;59146;43.850;25.948;2023-05-15T01:46:58;8.90;;;4.63;;
71343;SDS011;59146;43.850;25.948;2023-05-15T01:49:28;5.70;;;3.97;;
71343;SDS011;59146;43.850;25.948;2023-05-15T01:52:09;7.53;;;4.32;;
71343;SDS011;59146;43.850;25.948;2023-05-15T01:54:42;10.55;;;4.50;;
71343;SDS011;59146;43.850;25.948;2023-05-15T01:57:09;10.73;;;4.80;;
71343;SDS011;59146;43.850;25.948;2023-05-15T01:59:37;12.30;;;4.40;;
71343;SDS011;59146;43.850;25.948;2023-05-15T02:02:05;5.18;;;4.32;;
71343;SDS011;59146;43.850;25.948;2023-05-15T02:04:32;10.52;;;4.18;;
71343;SDS011;59146;43.850;25.948;2023-05-15T02:06:58;9.75;;;4.68;;
71343;SDS011;59146;43.850;25.948;2023-05-15T02:09:26;8.13;;;4.85;;
71343;SDS011;59146;43.850;25.948;2023-05-15T02:11:52;5.80;;;4.43;;
71343;SDS011;59146;43.850;25.948;2023-05-15T02:14:19;10.65;;;4.43;;
71343;SDS011;59146;43.850;25.948;2023-05-15T02:16:45;5.70;;;4.65;;
71343;SDS011;59146;43.850;25.948;2023-05-15T02:19:10;8.00;;;5.28;;
71343;SDS011;59146;43.850;25.948;2023-05-15T02:21:36;15.68;;;6.28;;
71343;SDS011;59146;43.850;25.948;2023-05-15T02:24:01;11.32;;;5.90;;
71343;SDS011;59146;43.850;25.948;2023-05-15T02:29:30;10.18;;;5.25;;
71343;SDS011;59146;43.850;25.948;2023-05-15T02:37:34;7.03;;;5.93;;
71343;SDS011;59146;43.850;25.948;2023-05-15T02:40:03;14.32;;;5.53;;
71343;SDS011;59146;43.850;25.948;2023-05-15T02:42:30;10.45;;;5.47;;
71343;SDS011;59146;43.850;25.948;2023-05-15T02:44:56;9.63;;;5.20;;
71343;SDS011;59146;43.850;25.948;2023-05-15T02:47:22;12.23;;;5.30;;
71343;SDS011;59146;43.850;25.948;2023-05-15T02:49:50;10.00;;;5.25;;
71343;SDS011;59146;43.850;25.948;2023-05-15T02:52:16;7.93;;;5.53;;
71343;SDS011;59146;43.850;25.948;2023-05-15T02:54:42;9.73;;;5.97;;
71343;SDS011;59146;43.850;25.948;2023-05-15T02:57:07;10.15;;;5.40;;
71343;SDS011;59146;43.850;25.948;2023-05-15T02:59:33;8.02;;;5.45;;
71343;SDS011;59146;43.850;25.948;2023-05-15T03:01:59;10.75;;;6.28;;
71343;SDS011;59146;43.850;25.948;2023-05-15T03:04:24;10.10;;;6.13;;
71343;SDS011;59146;43.850;25.948;2023-05-15T03:06:50;10.85;;;5.50;;
71343;SDS011;59146;43.850;25.948;2023-05-15T03:09:15;10.18;;;5.40;;
71343;SDS011;59146;43.850;25.948;2023-05-15T03:11:41;12.73;;;5.20;;
71343;SDS011;59146;43.850;25.948;2023-05-15T03:14:07;15.23;;;5.78;;
71343;SDS011;59146;43.850;25.948;2023-05-15T03:16:32;7.85;;;4.70;;
71343;SDS011;59146;43.850;25.948;2023-05-15T03:18:58;10.85;;;4.80;;
71343;SDS011;59146;43.850;25.948;2023-05-15T03:21:23;7.50;;;5.25;;
71343;SDS011;59146;43.850;25.948;2023-05-15T03:23:49;7.93;;;4.82;;
71343;SDS011;59146;43.850;25.948;2023-05-15T03:26:14;10.32;;;5.22;;
71343;SDS011;59146;43.850;25.948;2023-05-15T03:28:39;11.13;;;5.45;;
71343;SDS011;59146;43.850;25.948;2023-05-15T03:31:05;12.73;;;5.85;;
71343;SDS011;59146;43.850;25.948;2023-05-15T03:33:32;9.27;;;5.65;;
71343;SDS011;59146;43.850;25.948;2023-05-15T03:35:58;11.35;;;6.18;;
71343;SDS011;59146;43.850;25.948;2023-05-15T03:38:23;12.80;;;6.20;;
71343;SDS011;59146;43.850;25.948;2023-05-15T03:40:49;13.45;;;5.05;;
71343;SDS011;59146;43.850;25.948;2023-05-15T03:43:14;15.73;;;5.53;;
71343;SDS011;59146;43.850;25.948;2023-05-15T03:45:40;12.20;;;6.45;;
71343;SDS011;59146;43.850;25.948;2023-05-15T03:48:05;16.27;;;5.85;;
71343;SDS011;59146;43.850;25.948;2023-05-15T03:50:30;12.60;;;6.05;;
71343;SDS011;59146;43.850;25.948;2023-05-15T03:52:56;6.78;;;5.25;;
71343;SDS011;59146;43.850;25.948;2023-05-15T03:55:21;11.40;;;5.78;;
71343;SDS011;59146;43.850;25.948;2023-05-15T03:57:47;15.98;;;6.15;;
71343;SDS011;59146;43.850;25.948;2023-05-15T04:00:12;9.80;;;5.35;;
71343;SDS011;59146;43.850;25.948;2023-05-15T04:02:38;9.82;;;5.10;;
71343;SDS011;59146;43.850;25.948;2023-05-15T04:05:05;11.55;;;4.38;;
71343;SDS011;59146;43.850;25.948;2023-05-15T04:07:33;9.93;;;4.85;;
71343;SDS011;59146;43.850;25.948;2023-05-15T04:10:00;9.90;;;4.82;;
71343;SDS011;59146;43.850;25.948;2023-05-15T04:12:27;15.55;;;4.97;;
71343;SDS011;59146;43.850;25.948;2023-05-15T04:14:54;11.23;;;4.50;;
71343;SDS011;59146;43.850;25.948;2023-05-15T04:17:20;12.70;;;4.43;;
71343;SDS011;59146;43.850;25.948;2023-05-15T04:19:46;13.93;;;4.80;;
71343;SDS011;59146;43.850;25.948;2023-05-15T04:22:12;11.98;;;4.15;;
71343;SDS011;59146;43.850;25.948;2023-05-15T04:24:37;16.92;;;4.93;;
71343;SDS011;59146;43.850;25.948;2023-05-15T04:27:03;9.63;;;4.00;;
71343;SDS011;59146;43.850;25.948;2023-05-15T04:29:29;17.65;;;4.45;;
71343;SDS011;59146;43.850;25.948;2023-05-15T04:31:54;14.93;;;5.40;;
71343;SDS011;59146;43.850;25.948;2023-05-15T04:34:20;11.95;;;4.40;;
71343;SDS011;59146;43.850;25.948;2023-05-15T04:36:45;10.60;;;4.30;;
71343;SDS011;59146;43.850;25.948;2023-05-15T04:39:12;8.13;;;3.72;;
71343;SDS011;59146;43.850;25.948;2023-05-15T04:41:37;8.88;;;3.80;;
71343;SDS011;59146;43.850;25.948;2023-05-15T04:44:04;12.73;;;4.57;;
71343;SDS011;59146;43.850;25.948;2023-05-15T04:46:30;10.02;;;3.95;;
71343;SDS011;59146;43.850;25.948;2023-05-15T04:48:58;8.73;;;3.65;;
71343;SDS011;59146;43.850;25.948;2023-05-15T04:51:24;10.02;;;3.97;;
71343;SDS011;59146;43.850;25.948;2023-05-15T04:53:49;5.95;;;3.97;;
71343;SDS011;59146;43.850;25.948;2023-05-15T04:56:15;12.85;;;4.60;;
71343;SDS011;59146;43.850;25.948;2023-05-15T04:58:40;11.27;;;4.85;;
71343;SDS011;59146;43.850;25.948;2023-05-15T05:01:05;9.70;;;4.45;;
71343;SDS011;59146;43.850;25.948;2023-05-15T05:03:31;11.25;;;4.28;;
71343;SDS011;59146;43.850;25.948;2023-05-15T05:05:57;11.75;;;5.13;;
71343;SDS011;59146;43.850;25.948;2023-05-15T05:08:22;14.48;;;4.20;;
71343;SDS011;59146;43.850;25.948;2023-05-15T05:10:48;13.45;;;4.95;;
71343;SDS011;59146;43.850;25.948;2023-05-15T05:13:18;14.32;;;4.05;;
71343;SDS011;59146;43.850;25.948;2023-05-15T05:15:44;7.72;;;4.38;;
71343;SDS011;59146;43.850;25.948;2023-05-15T05:18:10;15.90;;;4.57;;
71343;SDS011;59146;43.850;25.948;2023-05-15T05:20:35;19.80;;;8.00;;
71343;SDS011;59146;43.850;25.948;2023-05-15T05:23:01;16.80;;;5.35;;
71343;SDS011;59146;43.850;25.948;2023-05-15T05:25:26;17.48;;;5.30;;
71343;SDS011;59146;43.850;25.948;2023-05-15T05:27:52;26.33;;;5.32;;
71343;SDS011;59146;43.850;25.948;2023-05-15T05:30:17;24.40;;;6.10;;
71343;SDS011;59146;43.850;25.948;2023-05-15T05:32:43;19.27;;;5.43;;
71343;SDS011;59146;43.850;25.948;2023-05-15T05:35:08;18.88;;;5.18;;
71343;SDS011;59146;43.850;25.948;2023-05-15T05:37:33;16.17;;;5.40;;
71343;SDS011;59146;43.850;25.948;2023-05-15T05:39:59;21.60;;;4.93;;
71343;SDS011;59146;43.850;25.948;2023-05-15T05:42:24;10.43;;;4.78;;
71343;SDS011;59146;43.850;25.948;2023-05-15T05:44:50;18.35;;;5.70;;
71343;SDS011;59146;43.850;25.948;2023-05-15T05:47:16;9.02;;;4.53;;
71343;SDS011;59146;43.850;25.948;2023-05-15T05:49:41;18.30;;;4.70;;
71343;SDS011;59146;43.850;25.948;2023-05-15T05:52:07;12.80;;;4.28;;
71343;SDS011;59146;43.850;25.948;2023-05-15T05:54:33;12.88;;;4.38;;
71343;SDS011;59146;43.850;25.948;2023-05-15T05:56:58;6.55;;;3.75;;
71343;SDS011;59146;43.850;25.948;2023-05-15T05:59:24;16.70;;;4.38;;
71343;SDS011;59146;43.850;25.948;2023-05-15T06:01:50;13.77;;;5.53;;
71343;SDS011;59146;43.850;25.948;2023-05-15T06:04:15;18.23;;;4.50;;
71343;SDS011;59146;43.850;25.948;2023-05-15T06:06:42;14.77;;;4.22;;
71343;SDS011;59146;43.850;25.948;2023-05-15T06:09:09;13.85;;;4.38;;
71343;SDS011;59146;43.850;25.948;2023-05-15T06:11:34;16.85;;;4.97;;
71343;SDS011;59146;43.850;25.948;2023-05-15T06:13:59;8.27;;;4.68;;
71343;SDS011;59146;43.850;25.948;2023-05-15T06:16:25;16.80;;;5.07;;
71343;SDS011;59146;43.850;25.948;2023-05-15T06:18:50;16.02;;;4.53;;
71343;SDS011;59146;43.850;25.948;2023-05-15T06:21:16;9.32;;;3.92;;
71343;SDS011;59146;43.850;25.948;2023-05-15T06:23:41;15.73;;;4.30;;
71343;SDS011;59146;43.850;25.948;2023-05-15T06:26:06;12.55;;;4.82;;
71343;SDS011;59146;43.850;25.948;2023-05-15T06:28:32;13.25;;;4.25;;
71343;SDS011;59146;43.850;25.948;2023-05-15T06:30:57;8.88;;;4.05;;
71343;SDS011;59146;43.850;25.948;2023-05-15T06:33:23;7.80;;;4.32;;
71343;SDS011;59146;43.850;25.948;2023-05-15T06:35:48;7.57;;;4.38;;
71343;SDS011;59146;43.850;25.948;2023-05-15T06:38:13;11.13;;;4.38;;
71343;SDS011;59146;43.850;25.948;2023-05-15T06:40:39;10.25;;;4.45;;
71343;SDS011;59146;43.850;25.948;2023-05-15T06:43:04;8.18;;;3.88;;
71343;SDS011;59146;43.850;25.948;2023-05-15T06:45:30;9.32;;;3.00;;
71343;SDS011;59146;43.850;25.948;2023-05-15T06:47:55;9.30;;;3.47;;
71343;SDS011;59146;43.850;25.948;2023-05-15T06:50:20;3.58;;;3.22;;
71343;SDS011;59146;43.850;25.948;2023-05-15T06:52:46;13.50;;;4.65;;
71343;SDS011;59146;43.850;25.948;2023-05-15T06:55:11;7.63;;;3.25;;
71343;SDS011;59146;43.850;25.948;2023-05-15T06:57:37;14.27;;;4.18;;
71343;SDS011;59146;43.850;25.948;2023-05-15T07:00:02;10.70;;;4.65;;
71343;SDS011;59146;43.850;25.948;2023-05-15T07:02:29;11.80;;;4.25;;
71343;SDS011;59146;43.850;25.948;2023-05-15T07:04:55;9.00;;;4.20;;
71343;SDS011;59146;43.850;25.948;2023-05-15T07:07:20;6.95;;;3.75;;
71343;SDS011;59146;43.850;25.948;2023-05-15T07:09:45;6.72;;;3.95;;
71343;SDS011;59146;43.850;25.948;2023-05-15T07:12:12;19.83;;;4.63;;
71343;SDS011;59146;43.850;25.948;2023-05-15T07:14:39;16.55;;;4.07;;
71343;SDS011;59146;43.850;25.948;2023-05-15T07:17:04;11.68;;;3.92;;
71343;SDS011;59146;43.850;25.948;2023-05-15T07:19:29;13.77;;;4.03;;
71343;SDS011;59146;43.850;25.948;2023-05-15T07:21:55;11.73;;;4.93;;
71343;SDS011;59146;43.850;25.948;2023-05-15T07:24:20;12.57;;;4.07;;
71343;SDS011;59146;43.850;25.948;2023-05-15T07:26:46;15.38;;;4.88;;
71343;SDS011;59146;43.850;25.948;2023-05-15T07:29:11;13.35;;;4.05;;
71343;SDS011;59146;43.850;25.948;2023-05-15T07:31:37;8.48;;;3.85;;
71343;SDS011;59146;43.850;25.948;2023-05-15T07:34:04;8.05;;;3.67;;
71343;SDS011;59146;43.850;25.948;2023-05-15T07:36:29;5.50;;;2.95;;
71343;SDS011;59146;43.850;25.948;2023-05-15T07:38:55;10.07;;;3.40;;
71343;SDS011;59146;43.850;25.948;2023-05-15T07:41:20;10.68;;;3.67;;
71343;SDS011;59146;43.850;25.948;2023-05-15T07:43:46;11.60;;;3.55;;
71343;SDS011;59146;43.850;25.948;2023-05-15T07:46:11;20.23;;;10.50;;
71343;SDS011;59146;43.850;25.948;2023-05-15T07:48:37;14.43;;;4.80;;
71343;SDS011;59146;43.850;25.948;2023-05-15T07:51:03;9.98;;;3.80;;
71343;SDS011;59146;43.850;25.948;2023-05-15T07:53:28;9.13;;;3.90;;
71343;SDS011;59146;43.850;25.948;2023-05-15T07:55:54;11.70;;;4.30;;
71343;SDS011;59146;43.850;25.948;2023-05-15T07:58:19;9.63;;;4.35;;
71343;SDS011;59146;43.850;25.948;2023-05-15T08:00:45;7.72;;;3.95;;
71343;SDS011;59146;43.850;25.948;2023-05-15T08:03:10;11.15;;;4.03;;
71343;SDS011;59146;43.850;25.948;2023-05-15T08:05:36;10.02;;;3.80;;
71343;SDS011;59146;43.850;25.948;2023-05-15T08:08:01;8.57;;;4.15;;
71343;SDS011;59146;43.850;25.948;2023-05-15T08:10:27;6.85;;;3.50;;
71343;SDS011;59146;43.850;25.948;2023-05-15T08:12:52;5.85;;;3.30;;
71343;SDS011;59146;43.850;25.948;2023-05-15T08:15:18;20.67;;;3.83;;
71343;SDS011;59146;43.850;25.948;2023-05-15T08:17:43;15.15;;;3.63;;
71343;SDS011;59146;43.850;25.948;2023-05-15T08:20:09;14.18;;;4.03;;
71343;SDS011;59146;43.850;25.948;2023-05-15T08:22:34;9.20;;;4.43;;
71343;SDS011;59146;43.850;25.948;2023-05-15T08:25:00;8.90;;;4.65;;
71343;SDS011;59146;43.850;25.948;2023-05-15T08:27:28;14.45;;;4.50;;
71343;SDS011;59146;43.850;25.948;2023-05-15T08:29:53;10.10;;;4.10;;
71343;SDS011;59146;43.850;25.948;2023-05-15T08:32:18;13.70;;;3.78;;
71343;SDS011;59146;43.850;25.948;2023-05-15T08:34:44;10.20;;;3.95;;
71343;SDS011;59146;43.850;25.948;2023-05-15T08:37:09;5.90;;;3.33;;
71343;SDS011;59146;43.850;25.948;2023-05-15T08:39:35;9.60;;;3.30;;
71343;SDS011;59146;43.850;25.948;2023-05-15T08:44:48;13.02;;;3.33;;
71343;SDS011;59146;43.850;25.948;2023-05-15T08:47:14;5.10;;;3.33;;
71343;SDS011;59146;43.850;25.948;2023-05-15T08:49:50;9.02;;;3.50;;
71343;SDS011;59146;43.850;25.948;2023-05-15T08:52:21;10.10;;;3.65;;
71343;SDS011;59146;43.850;25.948;2023-05-15T08:54:47;10.35;;;3.33;;
71343;SDS011;59146;43.850;25.948;2023-05-15T08:57:14;4.50;;;3.30;;
71343;SDS011;59146;43.850;25.948;2023-05-15T08:59:41;10.70;;;3.53;;
71343;SDS011;59146;43.850;25.948;2023-05-15T09:02:07;10.50;;;3.60;;
71343;SDS011;59146;43.850;25.948;2023-05-15T09:04:33;8.95;;;3.80;;
71343;SDS011;59146;43.850;25.948;2023-05-15T09:06:59;9.00;;;4.53;;
71343;SDS011;59146;43.850;25.948;2023-05-15T09:09:25;7.72;;;3.70;;
71343;SDS011;59146;43.850;25.948;2023-05-15T09:11:51;6.50;;;3.08;;
71343;SDS011;59146;43.850;25.948;2023-05-15T09:14:17;9.00;;;3.55;;
71343;SDS011;59146;43.850;25.948;2023-05-15T09:16:43;5.45;;;3.03;;
71343;SDS011;59146;43.850;25.948;2023-05-15T09:19:11;14.55;;;4.30;;
71343;SDS011;59146;43.850;25.948;2023-05-15T09:21:38;10.55;;;4.03;;
71343;SDS011;59146;43.850;25.948;2023-05-15T09:24:24;7.97;;;3.22;;
71343;SDS011;59146;43.850;25.948;2023-05-15T09:27:02;13.75;;;3.67;;
71343;SDS011;59146;43.850;25.948;2023-05-15T09:29:30;8.20;;;3.75;;
71343;SDS011;59146;43.850;25.948;2023-05-15T09:32:01;9.52;;;3.08;;
71343;SDS011;59146;43.850;25.948;2023-05-15T09:36:54;6.28;;;2.92;;
71343;SDS011;59146;43.850;25.948;2023-05-15T09:39:23;6.28;;;3.30;;
71343;SDS011;59146;43.850;25.948;2023-05-15T09:41:49;8.00;;;3.60;;
71343;SDS011;59146;43.850;25.948;2023-05-15T09:44:18;8.02;;;3.33;;
71343;SDS011;59146;43.850;25.948;2023-05-15T09:46:52;14.48;;;3.28;;
71343;SDS011;59146;43.850;25.948;2023-05-15T09:49:18;8.10;;;2.95;;
71343;SDS011;59146;43.850;25.948;2023-05-15T09:51:43;8.07;;;3.20;;
71343;SDS011;59146;43.850;25.948;2023-05-15T09:54:14;5.85;;;3.13;;
71343;SDS011;59146;43.850;25.948;2023-05-15T09:59:13;6.22;;;3.10;;
71343;SDS011;59146;43.850;25.948;2023-05-15T10:01:47;11.40;;;3.92;;
71343;SDS011;59146;43.850;25.948;2023-05-15T10:04:14;7.95;;;2.92;;
71343;SDS011;59146;43.850;25.948;2023-05-15T10:06:41;7.10;;;3.20;;
71343;SDS011;59146;43.850;25.948;2023-05-15T10:09:10;5.20;;;3.35;;
71343;SDS011;59146;43.850;25.948;2023-05-15T10:11:38;8.32;;;3.03;;
71343;SDS011;59146;43.850;25.948;2023-05-15T10:14:06;14.10;;;3.65;;
71343;SDS011;59146;43.850;25.948;2023-05-15T10:16:34;5.90;;;3.03;;
71343;SDS011;59146;43.850;25.948;2023-05-15T10:19:07;7.70;;;3.20;;
71343;SDS011;59146;43.850;25.948;2023-05-15T10:21:43;9.13;;;3.05;;
71343;SDS011;59146;43.850;25.948;2023-05-15T10:24:09;11.32;;;3.25;;
71343;SDS011;59146;43.850;25.948;2023-05-15T10:26:37;10.02;;;3.45;;
71343;SDS011;59146;43.850;25.948;2023-05-15T10:29:04;12.27;;;3.60;;
71343;SDS011;59146;43.850;25.948;2023-05-15T10:31:31;8.65;;;3.50;;
71343;SDS011;59146;43.850;25.948;2023-05-15T10:33:58;14.93;;;3.22;;
71343;SDS011;59146;43.850;25.948;2023-05-15T10:36:25;8.27;;;3.58;;
71343;SDS011;59146;43.850;25.948;2023-05-15T10:38:51;15.77;;;4.63;;
71343;SDS011;59146;43.850;25.948;2023-05-15T10:41:17;5.20;;;3.22;;
71343;SDS011;59146;43.850;25.948;2023-05-15T10:43:45;11.32;;;3.63;;
71343;SDS011;59146;43.850;25.948;2023-05-15T10:46:12;5.40;;;3.25;;
71343;SDS011;59146;43.850;25.948;2023-05-15T10:48:38;12.93;;;3.42;;
71343;SDS011;59146;43.850;25.948;2023-05-15T10:51:04;12.20;;;3.60;;
71343;SDS011;59146;43.850;25.948;2023-05-15T10:53:30;14.57;;;3.53;;
71343;SDS011;59146;43.850;25.948;2023-05-15T10:55:56;8.43;;;3.38;;
71343;SDS011;59146;43.850;25.948;2023-05-15T10:58:22;16.23;;;3.25;;
71343;SDS011;59146;43.850;25.948;2023-05-15T11:00:48;9.30;;;3.45;;
71343;SDS011;59146;43.850;25.948;2023-05-15T11:03:14;16.58;;;4.15;;
71343;SDS011;59146;43.850;25.948;2023-05-15T11:08:35;8.48;;;2.60;;
71343;SDS011;59146;43.850;25.948;2023-05-15T11:11:02;7.03;;;2.83;;
71343;SDS011;59146;43.850;25.948;2023-05-15T11:13:44;8.25;;;2.97;;
71343;SDS011;59146;43.850;25.948;2023-05-15T11:21:58;6.38;;;2.88;;
71343;SDS011;59146;43.850;25.948;2023-05-15T11:24:28;8.13;;;3.42;;
71343;SDS011;59146;43.850;25.948;2023-05-15T11:26:58;5.20;;;3.03;;
71343;SDS011;59146;43.850;25.948;2023-05-15T11:29:24;8.77;;;2.85;;
71343;SDS011;59146;43.850;25.948;2023-05-15T11:31:50;8.07;;;3.33;;
71343;SDS011;59146;43.850;25.948;2023-05-15T11:34:17;13.23;;;3.22;;
71343;SDS011;59146;43.850;25.948;2023-05-15T11:37:08;8.25;;;3.70;;
71343;SDS011;59146;43.850;25.948;2023-05-15T11:39:40;9.32;;;2.95;;
71343;SDS011;59146;43.850;25.948;2023-05-15T11:42:11;7.72;;;3.25;;
71343;SDS011;59146;43.850;25.948;2023-05-15T11:44:37;14.48;;;4.13;;
71343;SDS011;59146;43.850;25.948;2023-05-15T11:47:09;7.55;;;3.47;;
71343;SDS011;59146;43.850;25.948;2023-05-15T11:49:35;8.43;;;3.40;;
71343;SDS011;59146;43.850;25.948;2023-05-15T11:52:02;13.45;;;2.97;;
71343;SDS011;59146;43.850;25.948;2023-05-15T11:54:28;11.80;;;3.03;;
71343;SDS011;59146;43.850;25.948;2023-05-15T11:56:55;6.70;;;2.92;;
71343;SDS011;59146;43.850;25.948;2023-05-15T11:59:21;7.55;;;2.58;;
71343;SDS011;59146;43.850;25.948;2023-05-15T12:01:51;10.37;;;3.40;;
71343;SDS011;59146;43.850;25.948;2023-05-15T12:04:16;13.75;;;3.17;;
71343;SDS011;59146;43.850;25.948;2023-05-15T12:06:43;9.27;;;3.60;;
71343;SDS011;59146;43.850;25.948;2023-05-15T12:09:14;17.60;;;4.38;;
71343;SDS011;59146;43.850;25.948;2023-05-15T12:11:46;13.05;;;3.10;;
71343;SDS011;59146;43.850;25.948;2023-05-15T12:14:13;7.93;;;3.17;;
71343;SDS011;59146;43.850;25.948;2023-05-15T12:16:38;10.43;;;3.80;;
71343;SDS011;59146;43.850;25.948;2023-05-15T12:19:04;9.68;;;3.05;;
71343;SDS011;59146;43.850;25.948;2023-05-15T12:21:29;7.82;;;3.45;;
71343;SDS011;59146;43.850;25.948;2023-05-15T12:23:55;12.55;;;3.22;;
71343;SDS011;59146;43.850;25.948;2023-05-15T12:26:20;8.77;;;2.60;;
71343;SDS011;59146;43.850;25.948;2023-05-15T12:28:47;16.48;;;3.08;;
71343;SDS011;59146;43.850;25.948;2023-05-15T12:31:13;8.48;;;2.38;;
71343;SDS011;59146;43.850;25.948;2023-05-15T12:33:41;10.10;;;2.90;;
71343;SDS011;59146;43.850;25.948;2023-05-15T12:36:07;8.02;;;2.80;;
71343;SDS011;59146;43.850;25.948;2023-05-15T12:38:33;10.00;;;3.13;;
71343;SDS011;59146;43.850;25.948;2023-05-15T12:41:00;10.55;;;3.67;;
71343;SDS011;59146;43.850;25.948;2023-05-15T12:43:26;12.48;;;3.55;;
71343;SDS011;59146;43.850;25.948;2023-05-15T12:45:52;11.50;;;3.08;;
71343;SDS011;59146;43.850;25.948;2023-05-15T12:48:19;12.38;;;3.95;;
71343;SDS011;59146;43.850;25.948;2023-05-15T12:50:45;19.85;;;4.45;;
71343;SDS011;59146;43.850;25.948;2023-05-15T12:53:14;11.35;;;3.45;;
71343;SDS011;59146;43.850;25.948;2023-05-15T12:55:40;9.38;;;3.45;;
71343;SDS011;59146;43.850;25.948;2023-05-15T12:58:09;10.95;;;3.28;;
71343;SDS011;59146;43.850;25.948;2023-05-15T13:00:37;11.80;;;3.05;;
71343;SDS011;59146;43.850;25.948;2023-05-15T13:03:04;12.20;;;3.42;;
71343;SDS011;59146;43.850;25.948;2023-05-15T13:05:32;9.45;;;2.97;;
71343;SDS011;59146;43.850;25.948;2023-05-15T13:08:01;12.32;;;3.80;;
71343;SDS011;59146;43.850;25.948;2023-05-15T13:10:30;21.98;;;3.72;;
71343;SDS011;59146;43.850;25.948;2023-05-15T13:12:56;10.43;;;3.38;;
71343;SDS011;59146;43.850;25.948;2023-05-15T13:15:34;7.47;;;2.78;;
71343;SDS011;59146;43.850;25.948;2023-05-15T13:18:02;8.73;;;3.00;;
71343;SDS011;59146;43.850;25.948;2023-05-15T13:20:29;10.23;;;3.20;;
71343;SDS011;59146;43.850;25.948;2023-05-15T13:22:58;13.93;;;2.83;;
71343;SDS011;59146;43.850;25.948;2023-05-15T13:25:24;13.70;;;3.55;;
71343;SDS011;59146;43.850;25.948;2023-05-15T13:27:49;11.63;;;3.17;;
71343;SDS011;59146;43.850;25.948;2023-05-15T13:30:15;6.53;;;3.65;;
71343;SDS011;59146;43.850;25.948;2023-05-15T13:32:41;9.73;;;3.25;;
71343;SDS011;59146;43.850;25.948;2023-05-15T13:35:07;11.77;;;3.15;;
71343;SDS011;59146;43.850;25.948;2023-05-15T13:37:34;10.98;;;3.30;;
71343;SDS011;59146;43.850;25.948;2023-05-15T13:39:59;11.30;;;2.85;;
71343;SDS011;59146;43.850;25.948;2023-05-15T13:42:24;12.75;;;3.17;;
71343;SDS011;59146;43.850;25.948;2023-05-15T13:44:50;9.38;;;3.00;;
71343;SDS011;59146;43.850;25.948;2023-05-15T13:47:15;14.27;;;3.40;;
71343;SDS011;59146;43.850;25.948;2023-05-15T13:49:41;15.05;;;3.30;;
71343;SDS011;59146;43.850;25.948;2023-05-15T13:52:06;9.55;;;3.38;;
71343;SDS011;59146;43.850;25.948;2023-05-15T13:54:31;9.48;;;3.17;;
71343;SDS011;59146;43.850;25.948;2023-05-15T13:56:57;7.38;;;2.60;;
71343;SDS011;59146;43.850;25.948;2023-05-15T13:59:22;12.73;;;3.92;;
71343;SDS011;59146;43.850;25.948;2023-05-15T14:01:48;3.92;;;2.63;;
71343;SDS011;59146;43.850;25.948;2023-05-15T14:04:13;8.10;;;2.58;;
71343;SDS011;59146;43.850;25.948;2023-05-15T14:06:39;8.15;;;2.80;;
71343;SDS011;59146;43.850;25.948;2023-05-15T14:09:04;9.85;;;3.35;;
71343;SDS011;59146;43.850;25.948;2023-05-15T14:11:31;4.25;;;2.58;;
71343;SDS011;59146;43.850;25.948;2023-05-15T14:13:57;8.48;;;2.90;;
71343;SDS011;59146;43.850;25.948;2023-05-15T14:16:23;7.38;;;3.00;;
71343;SDS011;59146;43.850;25.948;2023-05-15T14:18:48;6.47;;;3.13;;
71343;SDS011;59146;43.850;25.948;2023-05-15T14:21:13;10.55;;;3.00;;
71343;SDS011;59146;43.850;25.948;2023-05-15T14:23:39;15.10;;;3.85;;
71343;SDS011;59146;43.850;25.948;2023-05-15T14:26:04;6.90;;;2.75;;
71343;SDS011;59146;43.850;25.948;2023-05-15T14:28:30;12.20;;;2.67;;
71343;SDS011;59146;43.850;25.948;2023-05-15T14:30:55;10.75;;;3.78;;
71343;SDS011;59146;43.850;25.948;2023-05-15T14:33:20;12.43;;;3.10;;
71343;SDS011;59146;43.850;25.948;2023-05-15T14:35:46;5.32;;;2.85;;
71343;SDS011;59146;43.850;25.948;2023-05-15T14:38:11;6.32;;;2.60;;
71343;SDS011;59146;43.850;25.948;2023-05-15T14:40:37;10.75;;;3.55;;
71343;SDS011;59146;43.850;25.948;2023-05-15T14:43:02;6.30;;;2.83;;
71343;SDS011;59146;43.850;25.948;2023-05-15T14:45:27;10.20;;;3.03;;
71343;SDS011;59146;43.850;25.948;2023-05-15T14:47:53;10.65;;;2.80;;
71343;SDS011;59146;43.850;25.948;2023-05-15T14:50:18;13.05;;;3.28;;
71343;SDS011;59146;43.850;25.948;2023-05-15T14:52:44;8.25;;;3.00;;
71343;SDS011;59146;43.850;25.948;2023-05-15T14:55:09;8.70;;;3.40;;
71343;SDS011;59146;43.850;25.948;2023-05-15T14:57:35;6.40;;;3.53;;